Terminal Aerodrome Forecast
Issued by NWS Newport/Morehead City, NC

Home | Current Version | Previous Version | Text Only | Print | Product List | Glossary Off
Versions: 1 2 3 4 5 6 7 8 9 10 11 12 13 14 15

000
FTUS42 KMHX 272324
TAFEWN
TAF
KEWN 272324Z 2800/2824 21010G15KT P6SM SCT020
     FM280200 21008KT 5SM -RA VCTS BKN030CB
     FM280300 22008KT P6SM SCT030
     FM281100 28005KT P6SM SCT250
     FM281700 27005KT P6SM SCT040=

USA.gov is the U.S. government's official web portal to all federal, state and local government web resources and services.